Time;durP1;ratioP1;P1;durP2;ratioP2;P2;SDS_P1;SDS_P2;PMS_P1;PMS_P2;Temp;Humidity;BMP_temperature;BMP_pressure;BME280_temperature;BME280_humidity;BME280_pressure;Samples;Min_cycle;Max_cycle;Signal;HPM_P1;HPM_P2
2022/05/26 00:02:03;;;;;;;2.85;0.90;;;;;;;;;;5033048;28;20021;-87
2022/05/26 00:04:29;;;;;;;1.95;0.77;;;;;;;;;;5034629;28;20022;-85
2022/05/26 00:06:59;;;;;;;2.58;0.70;;;;;;;;;;5033327;28;20037;-87
2022/05/26 00:09:25;;;;;;;4.32;1.00;;;;;;;;;;5053147;28;20053;-88
2022/05/26 00:11:51;;;;;;;2.17;0.63;;;;;;;;;;5045265;28;20037;-88
2022/05/26 00:14:17;;;;;;;1.85;0.77;;;;;;;;;;5032833;28;20029;-89
2022/05/26 00:16:45;;;;;;;1.27;0.77;;;;;;;;;;5052858;28;20021;-87
2022/05/26 00:19:12;;;;;;;0.85;0.80;;;;;;;;;;5053796;28;20082;-87
2022/05/26 00:21:38;;;;;;;2.90;1.10;;;;;;;;;;5054018;28;20024;-87
2022/05/26 00:24:05;;;;;;;1.42;0.90;;;;;;;;;;5054474;28;20017;-87
2022/05/26 00:26:31;;;;;;;1.40;0.90;;;;;;;;;;5046356;28;20483;-87
2022/05/26 00:28:57;;;;;;;1.67;0.80;;;;;;;;;;5034169;28;20025;-88
2022/05/26 00:31:24;;;;;;;4.20;1.00;;;;;;;;;;5034108;28;20391;-88
2022/05/26 00:33:50;;;;;;;4.47;0.82;;;;;;;;;;5032285;28;20028;-87
2022/05/26 00:36:17;;;;;;;1.88;0.90;;;;;;;;;;5053574;28;20025;-87
2022/05/26 00:38:43;;;;;;;4.30;1.48;;;;;;;;;;5052149;28;20124;-88
2022/05/26 00:41:10;;;;;;;2.85;1.02;;;;;;;;;;5053111;28;20099;-88
2022/05/26 00:43:41;;;;;;;2.67;0.90;;;;;;;;;;5052446;28;20028;-87
2022/05/26 00:46:15;;;;;;;3.65;1.05;;;;;;;;;;5053793;28;20470;-88
2022/05/26 00:48:48;;;;;;;1.75;0.80;;;;;;;;;;5052811;28;20055;-88
2022/05/26 00:51:16;;;;;;;4.30;0.85;;;;;;;;;;5033720;28;20057;-85
2022/05/26 00:53:51;;;;;;;1.17;0.75;;;;;;;;;;5033231;28;20040;-86
2022/05/26 00:56:27;;;;;;;2.25;0.95;;;;;;;;;;5033689;28;20025;-89
2022/05/26 00:59:00;;;;;;;1.60;0.85;;;;;;;;;;5033279;28;20033;-88
2022/05/26 01:01:27;;;;;;;5.68;1.10;;;;;;;;;;5035309;28;20040;-88
2022/05/26 01:03:57;;;;;;;2.78;0.68;;;;;;;;;;5032300;28;20057;-86
2022/05/26 01:06:26;;;;;;;2.95;0.80;;;;;;;;;;5039795;28;20023;-87
2022/05/26 01:08:54;;;;;;;1.98;0.80;;;;;;;;;;5053312;28;20529;-86
2022/05/26 01:11:20;;;;;;;2.28;0.80;;;;;;;;;;5053123;28;20471;-87
2022/05/26 01:13:48;;;;;;;3.42;0.82;;;;;;;;;;5053047;28;20025;-87
2022/05/26 01:16:30;;;;;;;3.53;0.77;;;;;;;;;;5046516;28;20032;-87
2022/05/26 01:19:15;;;;;;;1.17;0.90;;;;;;;;;;5038709;28;20033;-87
2022/05/26 01:21:44;;;;;;;3.95;1.17;;;;;;;;;;5050525;28;20479;-87
2022/05/26 01:24:22;;;;;;;1.55;0.90;;;;;;;;;;5048145;28;20036;-87
2022/05/26 01:27:06;;;;;;;2.08;0.57;;;;;;;;;;5032736;28;20391;-87
2022/05/26 01:29:36;;;;;;;1.45;0.70;;;;;;;;;;5037153;28;20525;-87
2022/05/26 01:32:17;;;;;;;3.70;0.70;;;;;;;;;;5052697;28;20029;-85
2022/05/26 01:34:43;;;;;;;;;;;;;;;;;;5052922;28;20032;-87
2022/05/26 01:37:09;;;;;;;0.73;0.65;;;;;;;;;;5051085;28;19909;-86
2022/05/26 01:39:35;;;;;;;2.78;0.70;;;;;;;;;;5050981;28;20108;-88
2022/05/26 01:42:19;;;;;;;0.68;0.60;;;;;;;;;;5052356;28;20437;-87
2022/05/26 01:45:08;;;;;;;2.65;0.80;;;;;;;;;;5050619;28;20162;-87
2022/05/26 01:47:53;;;;;;;1.67;0.90;;;;;;;;;;5037850;28;20456;-87
2022/05/26 01:50:25;;;;;;;1.42;0.70;;;;;;;;;;5044705;28;20021;-87
2022/05/26 01:53:06;;;;;;;1.20;0.60;;;;;;;;;;5050935;28;20556;-85
2022/05/26 01:55:52;;;;;;;1.13;0.70;;;;;;;;;;5050773;28;20057;-88
2022/05/26 01:58:25;;;;;;;2.15;0.90;;;;;;;;;;5051388;28;20405;-88
2022/05/26 02:00:53;;;;;;;1.65;0.50;;;;;;;;;;5051044;28;20032;-86
2022/05/26 02:03:21;;;;;;;3.95;0.80;;;;;;;;;;5052055;28;20033;-88
2022/05/26 02:05:53;;;;;;;2.17;0.50;;;;;;;;;;5052048;28;20508;-88
2022/05/26 02:08:23;;;;;;;1.42;0.60;;;;;;;;;;5052148;28;20135;-88
2022/05/26 02:10:59;;;;;;;1.88;1.10;;;;;;;;;;5052224;28;20049;-87
2022/05/26 02:13:39;;;;;;;2.75;0.80;;;;;;;;;;5040076;28;20031;-88
2022/05/26 02:16:09;;;;;;;0.85;0.60;;;;;;;;;;5038583;28;20051;-86
2022/05/26 02:18:39;;;;;;;1.10;0.70;;;;;;;;;;5038945;28;20028;-87
2022/05/26 02:21:13;;;;;;;0.80;0.60;;;;;;;;;;5038401;28;20068;-89
2022/05/26 02:23:59;;;;;;;7.97;1.05;;;;;;;;;;5035186;28;20032;-88
2022/05/26 02:26:25;;;;;;;2.20;0.70;;;;;;;;;;5048174;28;20079;-87
2022/05/26 02:31:37;;;;;;;0.73;0.73;;;;;;;;;;5056019;28;20406;-88
2022/05/26 02:34:05;;;;;;;1.70;0.85;;;;;;;;;;5054088;28;20075;-88
2022/05/26 02:36:33;;;;;;;1.65;1.20;;;;;;;;;;5055983;28;20040;-86
2022/05/26 02:38:59;;;;;;;1.13;0.80;;;;;;;;;;5055533;28;20256;-86
2022/05/26 02:41:25;;;;;;;1.73;0.77;;;;;;;;;;5056212;28;20025;-87
2022/05/26 02:43:52;;;;;;;1.17;0.52;;;;;;;;;;5056162;28;20032;-86
2022/05/26 02:46:24;;;;;;;1.15;0.70;;;;;;;;;;5054788;28;20111;-89
2022/05/26 02:49:02;;;;;;;2.97;0.80;;;;;;;;;;5056302;28;20083;-88
2022/05/26 02:51:47;;;;;;;9.60;1.20;;;;;;;;;;5055982;28;20120;-88
2022/05/26 02:54:26;;;;;;;2.03;0.75;;;;;;;;;;5042449;28;20052;-88
2022/05/26 02:56:52;;;;;;;1.80;0.98;;;;;;;;;;5036152;28;20044;-86
2022/05/26 02:59:24;;;;;;;5.00;0.60;;;;;;;;;;5035570;28;20402;-88
2022/05/26 03:01:56;;;;;;;1.45;0.68;;;;;;;;;;5035788;28;20025;-86
2022/05/26 03:04:32;;;;;;;1.58;0.80;;;;;;;;;;5035619;28;20124;-88
2022/05/26 03:07:03;;;;;;;0.60;0.60;;;;;;;;;;5046809;28;20025;-87
2022/05/26 03:09:33;;;;;;;4.18;0.73;;;;;;;;;;5054592;28;20052;-88
2022/05/26 03:11:59;;;;;;;1.08;0.70;;;;;;;;;;5055154;28;20542;-87
2022/05/26 03:14:25;;;;;;;0.50;0.50;;;;;;;;;;5054243;28;20031;-86
2022/05/26 03:16:52;;;;;;;3.42;0.85;;;;;;;;;;5054076;28;20466;-88
2022/05/26 03:19:18;;;;;;;2.00;0.60;;;;;;;;;;5055016;28;20143;-85
2022/05/26 03:21:44;;;;;;;2.25;0.85;;;;;;;;;;5055825;28;20035;-86
2022/05/26 03:24:10;;;;;;;2.67;0.60;;;;;;;;;;5074037;28;20037;-86
2022/05/26 03:26:37;;;;;;;0.85;0.70;;;;;;;;;;5074394;28;20048;-85
2022/05/26 03:29:03;;;;;;;1.05;0.68;;;;;;;;;;5074401;28;20029;-86
2022/05/26 03:31:30;;;;;;;2.22;0.80;;;;;;;;;;5075204;28;20025;-87
2022/05/26 03:42:16;;;;;;;2.58;0.70;;;;;;;;;;5054175;28;20041;-87
2022/05/26 03:44:43;;;;;;;1.58;0.82;;;;;;;;;;5035274;28;20112;-85
2022/05/26 03:47:09;;;;;;;5.28;1.10;;;;;;;;;;5035081;28;20079;-84
2022/05/26 03:49:35;;;;;;;4.60;0.80;;;;;;;;;;5049685;28;20482;-86
2022/05/26 03:52:01;;;;;;;3.15;1.02;;;;;;;;;;5054711;28;20108;-86
2022/05/26 03:54:27;;;;;;;2.90;0.70;;;;;;;;;;5056235;28;20029;-86
2022/05/26 03:56:53;;;;;;;0.80;0.80;;;;;;;;;;5056700;28;20024;-87
2022/05/26 03:59:19;;;;;;;3.72;1.02;;;;;;;;;;5055400;28;20410;-86
2022/05/26 04:01:45;;;;;;;1.42;0.63;;;;;;;;;;5053850;28;20040;-86
2022/05/26 04:04:11;;;;;;;2.97;0.70;;;;;;;;;;5054084;28;20114;-86
2022/05/26 04:06:37;;;;;;;2.78;0.90;;;;;;;;;;5051139;28;20483;-87
2022/05/26 04:09:03;;;;;;;2.45;0.80;;;;;;;;;;5054011;28;20025;-87
2022/05/26 04:11:30;;;;;;;2.78;0.68;;;;;;;;;;5055079;28;20445;-85
2022/05/26 04:13:56;;;;;;;0.88;0.68;;;;;;;;;;5053175;28;20092;-85
2022/05/26 04:16:22;;;;;;;1.02;0.60;;;;;;;;;;5051586;28;20067;-85
2022/05/26 04:18:48;;;;;;;6.45;1.00;;;;;;;;;;5042867;28;20040;-86
2022/05/26 04:21:14;;;;;;;2.70;0.70;;;;;;;;;;5034712;28;20021;-86
2022/05/26 04:23:40;;;;;;;1.98;0.63;;;;;;;;;;5034533;28;20025;-86
2022/05/26 04:26:07;;;;;;;3.45;0.80;;;;;;;;;;5033791;28;20033;-87
2022/05/26 04:28:34;;;;;;;1.27;0.70;;;;;;;;;;5033966;28;20025;-86
2022/05/26 04:31:00;;;;;;;4.32;0.77;;;;;;;;;;5032687;28;20674;-86
2022/05/26 04:33:26;;;;;;;5.00;0.90;;;;;;;;;;5045712;28;20029;-86
2022/05/26 04:35:53;;;;;;;1.35;0.70;;;;;;;;;;5052575;28;20027;-86
2022/05/26 04:38:19;;;;;;;1.88;0.60;;;;;;;;;;5052167;28;20075;-87
2022/05/26 04:40:46;;;;;;;3.55;0.70;;;;;;;;;;5052364;28;20445;-86
2022/05/26 04:43:13;;;;;;;3.10;0.70;;;;;;;;;;5051964;28;20475;-86
2022/05/26 04:45:39;;;;;;;6.30;1.08;;;;;;;;;;5047595;28;20398;-87
2022/05/26 04:48:06;;;;;;;2.15;1.20;;;;;;;;;;5053747;28;20025;-86
2022/05/26 04:50:32;;;;;;;2.60;0.80;;;;;;;;;;5052172;28;20083;-86
2022/05/26 04:52:58;;;;;;;4.35;0.90;;;;;;;;;;5052382;28;20482;-86
2022/05/26 04:55:24;;;;;;;2.45;0.70;;;;;;;;;;5037746;28;20029;-86
2022/05/26 04:57:52;;;;;;;1.10;1.00;;;;;;;;;;5033685;28;20034;-86
2022/05/26 05:00:18;;;;;;;3.45;0.90;;;;;;;;;;5046077;28;20040;-84
2022/05/26 05:02:44;;;;;;;4.10;0.80;;;;;;;;;;5049749;28;20093;-85
2022/05/26 05:05:11;;;;;;;6.72;0.90;;;;;;;;;;5036257;28;20851;-85
2022/05/26 05:07:37;;;;;;;1.25;0.70;;;;;;;;;;5053245;28;20021;-86
2022/05/26 05:10:03;;;;;;;1.15;0.82;;;;;;;;;;5054076;28;20017;-84
2022/05/26 05:12:30;;;;;;;2.85;0.90;;;;;;;;;;5054566;28;20486;-84
2022/05/26 05:14:56;;;;;;;3.55;0.95;;;;;;;;;;5055513;28;20045;-86
2022/05/26 05:17:23;;;;;;;4.50;0.95;;;;;;;;;;5058081;28;20048;-86
2022/05/26 05:19:50;;;;;;;2.30;0.68;;;;;;;;;;5055418;28;20561;-86
2022/05/26 05:22:25;;;;;;;2.50;0.68;;;;;;;;;;5055107;28;20117;-86
2022/05/26 05:24:58;;;;;;;2.30;1.20;;;;;;;;;;5053166;28;20033;-85
2022/05/26 05:27:43;;;;;;;4.30;0.95;;;;;;;;;;5052660;28;20087;-85
2022/05/26 05:30:15;;;;;;;1.20;0.90;;;;;;;;;;5053484;28;20061;-83
2022/05/26 05:32:43;;;;;;;4.60;0.80;;;;;;;;;;5053180;28;20458;-85
2022/05/26 05:35:12;;;;;;;7.00;0.80;;;;;;;;;;5051635;28;20128;-85
2022/05/26 05:37:39;;;;;;;2.17;1.42;;;;;;;;;;5051976;28;20029;-86
2022/05/26 05:40:05;;;;;;;5.35;0.75;;;;;;;;;;5054550;28;20406;-85
2022/05/26 05:42:31;;;;;;;4.43;0.90;;;;;;;;;;5054654;28;20036;-84
2022/05/26 05:45:00;;;;;;;4.05;1.33;;;;;;;;;;5055142;28;20029;-85
2022/05/26 05:47:26;;;;;;;3.88;0.80;;;;;;;;;;5053695;28;20059;-83
2022/05/26 05:49:52;;;;;;;2.63;0.88;;;;;;;;;;5051990;28;20506;-85
2022/05/26 05:52:19;;;;;;;1.85;0.93;;;;;;;;;;5052835;28;20024;-85
2022/05/26 05:54:46;;;;;;;2.50;0.60;;;;;;;;;;5054354;28;20033;-86
2022/05/26 05:57:12;;;;;;;1.85;0.88;;;;;;;;;;5052869;28;20064;-85
2022/05/26 05:59:38;;;;;;;5.43;1.52;;;;;;;;;;5055940;28;20083;-85
2022/05/26 06:02:04;;;;;;;2.13;0.77;;;;;;;;;;5054316;28;20082;-85
2022/05/26 06:04:30;;;;;;;5.32;1.33;;;;;;;;;;5069192;28;20025;-85
2022/05/26 06:06:58;;;;;;;1.65;0.80;;;;;;;;;;5057480;28;20025;-83
2022/05/26 06:09:24;;;;;;;2.30;0.70;;;;;;;;;;5058141;28;20085;-85
2022/05/26 06:11:59;;;;;;;3.58;0.90;;;;;;;;;;5056359;28;20036;-84
2022/05/26 06:14:52;;;;;;;;;;;;;;;;;;;;;
2022/05/26 06:17:35;;;;;;;4.68;0.80;;;;;;;;;;5052897;28;20111;-84
2022/05/26 06:20:02;;;;;;;3.20;1.00;;;;;;;;;;5050010;28;20029;-85
2022/05/26 06:22:49;;;;;;;3.90;1.00;;;;;;;;;;5054742;28;20025;-85
2022/05/26 06:37:13;;;;;;;4.78;0.95;;;;;;;;;;5052255;28;20079;-84
2022/05/26 06:37:27;;;;;;;1.83;1.00;;;;;;;;;;5053225;28;20091;-87
2022/05/26 06:40:14;;;;;;;3.45;1.20;;;;;;;;;;5053189;28;20029;-86
2022/05/26 06:42:57;;;;;;;3.13;1.00;;;;;;;;;;5054438;28;20037;-86
2022/05/26 06:45:23;;;;;;;3.25;1.00;;;;;;;;;;5056752;28;20032;-86
2022/05/26 06:47:57;;;;;;;2.45;0.90;;;;;;;;;;5058932;28;20683;-87
2022/05/26 06:50:33;;;;;;;4.63;1.10;;;;;;;;;;5072682;28;20021;-85
2022/05/26 06:52:59;;;;;;;1.25;1.00;;;;;;;;;;5073287;28;20020;-87
2022/05/26 06:55:36;;;;;;;3.70;0.95;;;;;;;;;;5073156;28;20028;-87
2022/05/26 06:58:07;;;;;;;6.13;1.08;;;;;;;;;;5073382;28;20525;-85
2022/05/26 07:00:37;;;;;;;4.18;1.35;;;;;;;;;;5072658;28;20028;-85
2022/05/26 07:03:04;;;;;;;1.40;1.15;;;;;;;;;;5076780;28;20029;-86
2022/05/26 07:05:35;;;;;;;2.50;0.90;;;;;;;;;;5075157;28;20504;-86
2022/05/26 07:08:31;;;;;;;2.30;0.77;;;;;;;;;;5066243;28;20030;-87
2022/05/26 07:11:18;;;;;;;8.68;1.00;;;;;;;;;;5075933;28;20035;-86
2022/05/26 07:13:53;;;;;;;3.28;0.93;;;;;;;;;;5075465;28;20417;-87
2022/05/26 07:16:19;;;;;;;2.92;0.80;;;;;;;;;;5074402;28;20021;-88
2022/05/26 07:18:50;;;;;;;2.65;0.93;;;;;;;;;;5073994;28;20127;-88
2022/05/26 07:21:27;;;;;;;;;;;;;;;;;;5075884;28;20040;-87
2022/05/26 07:24:01;;;;;;;9.93;1.20;;;;;;;;;;5072373;28;19978;-87
2022/05/26 07:26:40;;;;;;;2.85;1.20;;;;;;;;;;5055733;28;20025;-88
2022/05/26 07:29:09;;;;;;;2.50;0.88;;;;;;;;;;5055336;28;20100;-87
2022/05/26 07:31:48;;;;;;;3.60;1.05;;;;;;;;;;5055449;28;20053;-89
2022/05/26 07:43:46;;;;;;;;;;;;;;;;;;;;;
2022/05/26 07:46:33;;;;;;;2.60;1.20;;;;;;;;;;5084714;28;20120;-88
2022/05/26 07:49:33;;;;;;;;;;;;;;;;;;;;;
2022/05/26 07:52:37;;;;;;;3.70;1.30;;;;;;;;;;5071005;28;20043;-86
2022/05/26 07:55:03;;;;;;;5.95;1.33;;;;;;;;;;5033787;28;20056;-86
2022/05/26 07:57:29;;;;;;;1.95;1.08;;;;;;;;;;5032615;28;20037;-86
2022/05/26 08:03:33;;;;;;;4.97;1.55;;;;;;;;;;5034666;28;20029;-86
2022/05/26 08:06:14;;;;;;;3.00;1.17;;;;;;;;;;5038746;28;20033;-86
2022/05/26 08:08:51;;;;;;;4.30;1.30;;;;;;;;;;5052443;28;20025;-87
2022/05/26 08:11:17;;;;;;;4.47;1.02;;;;;;;;;;5052872;28;20048;-86
2022/05/26 08:13:46;;;;;;;4.40;1.10;;;;;;;;;;5068329;28;20024;-85
2022/05/26 08:16:18;;;;;;;2.78;1.20;;;;;;;;;;5066041;28;20029;-87
2022/05/26 08:18:50;;;;;;;1.80;1.02;;;;;;;;;;5052715;28;20113;-87
2022/05/26 08:24:31;;;;;;;1.55;0.93;;;;;;;;;;5053932;28;20075;-87
2022/05/26 08:27:16;;;;;;;4.03;1.00;;;;;;;;;;5052451;28;20052;-86
2022/05/26 08:29:45;;;;;;;3.65;1.05;;;;;;;;;;5053545;28;20045;-86
2022/05/26 08:32:11;;;;;;;3.40;1.40;;;;;;;;;;5054070;28;20028;-86
2022/05/26 08:34:37;;;;;;;4.43;1.10;;;;;;;;;;5054326;28;20029;-86
2022/05/26 08:37:16;;;;;;;;;;;;;;;;;;;;;
2022/05/26 08:39:42;;;;;;;7.13;1.20;;;;;;;;;;5053566;28;20214;-84
2022/05/26 08:42:14;;;;;;;1.58;1.00;;;;;;;;;;5060141;28;20036;-84
2022/05/26 08:44:40;;;;;;;2.35;1.17;;;;;;;;;;5072539;28;20044;-85
2022/05/26 08:47:33;;;;;;;2.95;1.10;;;;;;;;;;5072564;28;20047;-85
2022/05/26 08:50:17;;;;;;;1.30;0.60;;;;;;;;;;5072701;28;20048;-85
2022/05/26 08:53:10;;;;;;;5.53;1.10;;;;;;;;;;5074046;28;20028;-83
2022/05/26 08:55:47;;;;;;;7.78;1.63;;;;;;;;;;5067895;28;20037;-84
2022/05/26 08:58:17;;;;;;;2.95;0.77;;;;;;;;;;5072083;28;20037;-84
2022/05/26 09:01:03;;;;;;;5.20;0.90;;;;;;;;;;5072616;28;20020;-84
2022/05/26 09:03:39;;;;;;;2.80;0.73;;;;;;;;;;5072452;28;20028;-84
2022/05/26 09:06:08;;;;;;;3.80;1.02;;;;;;;;;;5055968;28;20036;-84
2022/05/26 09:14:44;;;;;;;2.78;1.00;;;;;;;;;;5052786;28;20091;-85
2022/05/26 09:17:34;;;;;;;0.73;0.73;;;;;;;;;;5052043;28;20035;-86
2022/05/26 09:20:09;;;;;;;1.23;0.70;;;;;;;;;;5049276;28;20036;-86
2022/05/26 09:22:51;;;;;;;1.65;0.77;;;;;;;;;;5053257;28;20096;-86
2022/05/26 09:25:47;;;;;;;2.58;0.95;;;;;;;;;;5053015;28;20031;-86
2022/05/26 09:28:44;;;;;;;4.72;1.00;;;;;;;;;;5072188;28;20031;-86
2022/05/26 09:37:11;;;;;;;1.77;0.80;;;;;;;;;;5052864;28;20412;-84
2022/05/26 09:39:57;;;;;;;2.75;0.90;;;;;;;;;;5052853;28;20033;-83
2022/05/26 09:42:32;;;;;;;3.25;0.95;;;;;;;;;;5050575;28;20029;-84
2022/05/26 09:45:15;;;;;;;0.90;0.80;;;;;;;;;;5051148;28;20036;-85
2022/05/26 09:47:48;;;;;;;2.85;1.00;;;;;;;;;;5051307;28;20021;-85
2022/05/26 09:50:37;;;;;;;0.93;0.63;;;;;;;;;;5052789;28;20027;-85
2022/05/26 09:53:05;;;;;;;1.65;0.80;;;;;;;;;;5050940;28;20036;-85
2022/05/26 09:55:34;;;;;;;1.60;0.80;;;;;;;;;;5053460;28;20475;-86
2022/05/26 09:58:27;;;;;;;;;;;;;;;;;;;;;
2022/05/26 10:04:31;;;;;;;;;;;;;;;;;;;;;
2022/05/26 10:07:38;;;;;;;1.73;0.70;;;;;;;;;;5070397;28;20033;-85
2022/05/26 10:13:48;;;;;;;4.43;0.80;;;;;;;;;;5052566;28;20025;-86
2022/05/26 10:20:00;;;;;;;3.03;0.95;;;;;;;;;;5029638;28;20029;-85
2022/05/26 10:22:54;;;;;;;;;;;;;;;;;;;;;
2022/05/26 10:25:47;;;;;;;4.53;1.10;;;;;;;;;;5048433;28;20499;-86
2022/05/26 10:28:40;;;;;;;2.90;0.80;;;;;;;;;;5054974;28;20037;-85
2022/05/26 10:31:31;;;;;;;2.25;0.88;;;;;;;;;;5052397;28;20021;-84
2022/05/26 10:34:09;;;;;;;3.42;1.05;;;;;;;;;;5032344;28;20052;-83
2022/05/26 10:36:55;;;;;;;4.78;0.90;;;;;;;;;;5061407;28;20372;-82
2022/05/26 10:39:45;;;;;;;2.65;1.58;;;;;;;;;;5038023;28;20034;-85
2022/05/26 10:42:36;;;;;;;2.33;0.95;;;;;;;;;;5074927;28;20032;-85
2022/05/26 10:45:21;;;;;;;1.38;0.73;;;;;;;;;;5064232;28;20139;-85
2022/05/26 10:48:15;;;;;;;4.55;1.52;;;;;;;;;;5075584;28;20440;-85
2022/05/26 10:50:46;;;;;;;1.75;0.90;;;;;;;;;;5034680;28;20407;-85
2022/05/26 10:53:49;;;;;;;;;;;;;;;;;;;;;
2022/05/26 10:56:35;;;;;;;4.18;0.85;;;;;;;;;;5041344;28;20037;-84
2022/05/26 11:02:34;;;;;;;3.78;0.80;;;;;;;;;;5056459;28;20107;-86
2022/05/26 11:05:11;;;;;;;4.97;1.42;;;;;;;;;;5043010;28;20032;-84
2022/05/26 11:11:29;;;;;;;;;;;;;;;;;;;;;
2022/05/26 11:17:21;;;;;;;2.17;0.95;;;;;;;;;;5053084;28;20456;-83
2022/05/26 11:17:23;;;;;;;2.30;0.77;;;;;;;;;;5057173;28;20025;-84
2022/05/26 11:20:05;;;;;;;3.92;1.17;;;;;;;;;;5060571;28;20035;-85
2022/05/26 11:22:31;;;;;;;5.47;1.30;;;;;;;;;;5056310;28;20031;-84
2022/05/26 11:25:17;;;;;;;3.90;1.27;;;;;;;;;;5055425;28;20123;-85
2022/05/26 11:28:16;;;;;;;3.45;0.93;;;;;;;;;;5053188;28;20037;-85
2022/05/26 11:36:51;;;;;;;3.30;0.90;;;;;;;;;;5050283;28;20087;-88
2022/05/26 11:39:43;;;;;;;4.68;0.90;;;;;;;;;;5056609;28;20091;-86
2022/05/26 11:42:30;;;;;;;4.47;1.05;;;;;;;;;;5057443;28;20029;-85
2022/05/26 11:44:56;;;;;;;3.55;0.93;;;;;;;;;;5060401;28;20044;-86
2022/05/26 11:47:30;;;;;;;2.20;0.77;;;;;;;;;;5064361;28;20021;-86
2022/05/26 11:49:56;;;;;;;4.82;1.10;;;;;;;;;;5067120;28;20390;-86
2022/05/26 11:52:43;;;;;;;6.25;1.00;;;;;;;;;;5071276;28;20029;-85
2022/05/26 11:55:28;;;;;;;3.47;0.85;;;;;;;;;;5074352;28;20029;-86
2022/05/26 11:57:55;;;;;;;4.13;0.80;;;;;;;;;;5058577;28;20463;-86
2022/05/26 12:00:21;;;;;;;4.22;1.25;;;;;;;;;;5105253;22;20111;-83
2022/05/26 12:02:50;;;;;;;4.78;1.25;;;;;;;;;;5056061;28;20044;-85
2022/05/26 12:05:29;;;;;;;2.58;1.33;;;;;;;;;;5035896;28;20017;-84
2022/05/26 12:08:03;;;;;;;3.63;1.15;;;;;;;;;;5043573;28;20035;-85
2022/05/26 12:10:30;;;;;;;3.13;1.20;;;;;;;;;;5052509;28;20091;-87
2022/05/26 12:13:15;;;;;;;1.77;0.85;;;;;;;;;;5053597;28;20021;-86
2022/05/26 12:16:01;;;;;;;5.00;1.20;;;;;;;;;;5052711;28;20104;-87
2022/05/26 12:18:36;;;;;;;4.68;1.25;;;;;;;;;;5052571;28;20299;-85
2022/05/26 12:21:14;;;;;;;4.32;0.95;;;;;;;;;;5052295;28;20398;-86
2022/05/26 12:23:42;;;;;;;2.22;0.68;;;;;;;;;;5052362;28;20033;-85
2022/05/26 12:26:28;;;;;;;2.47;1.30;;;;;;;;;;5053787;28;20033;-85
2022/05/26 12:28:54;;;;;;;6.35;0.80;;;;;;;;;;5053834;28;20061;-86
2022/05/26 12:31:21;;;;;;;2.08;0.80;;;;;;;;;;5035873;28;20422;-85
2022/05/26 12:33:53;;;;;;;2.20;0.70;;;;;;;;;;5034943;28;20036;-85
2022/05/26 12:36:25;;;;;;;2.97;0.63;;;;;;;;;;5046779;28;20554;-86
2022/05/26 12:39:19;;;;;;;1.95;0.75;;;;;;;;;;5050666;28;20049;-84
2022/05/26 12:42:10;;;;;;;2.78;1.00;;;;;;;;;;5038259;28;20028;-85
2022/05/26 12:44:39;;;;;;;2.03;0.82;;;;;;;;;;5049576;28;20033;-86
2022/05/26 12:47:17;;;;;;;3.05;0.70;;;;;;;;;;5038957;28;20033;-85
2022/05/26 12:49:49;;;;;;;2.05;0.70;;;;;;;;;;5044825;28;20033;-84
2022/05/26 12:52:26;;;;;;;2.40;1.10;;;;;;;;;;5045282;28;20029;-84
2022/05/26 12:54:59;;;;;;;3.72;0.90;;;;;;;;;;5053859;28;20029;-86
2022/05/26 12:57:26;;;;;;;3.63;1.00;;;;;;;;;;5050890;28;20103;-86
2022/05/26 13:00:12;;;;;;;4.38;0.98;;;;;;;;;;5052759;28;20025;-85
2022/05/26 13:02:38;;;;;;;2.40;0.80;;;;;;;;;;5052358;28;20028;-86
2022/05/26 13:05:06;;;;;;;4.18;0.88;;;;;;;;;;5044716;28;20080;-86
2022/05/26 13:07:33;;;;;;;2.35;1.10;;;;;;;;;;5042849;28;20025;-86
2022/05/26 13:09:59;;;;;;;2.70;0.98;;;;;;;;;;5053592;28;20395;-86
2022/05/26 13:12:26;;;;;;;3.67;1.00;;;;;;;;;;5052849;28;20024;-87
2022/05/26 13:14:55;;;;;;;6.07;0.82;;;;;;;;;;5053042;28;20052;-85
2022/05/26 13:17:26;;;;;;;2.58;0.73;;;;;;;;;;5034313;28;20029;-87
2022/05/26 13:19:51;;;;;;;2.88;0.77;;;;;;;;;;5039128;28;20510;-87
2022/05/26 13:22:28;;;;;;;5.47;0.65;;;;;;;;;;5051134;28;20048;-87
2022/05/26 13:24:56;;;;;;;2.67;0.80;;;;;;;;;;5049648;28;20466;-85
2022/05/26 13:27:22;;;;;;;5.55;0.73;;;;;;;;;;5051911;28;20021;-85
2022/05/26 13:29:50;;;;;;;3.70;0.70;;;;;;;;;;5051374;28;20025;-86
2022/05/26 13:35:05;;;;;;;4.22;0.80;;;;;;;;;;5038085;28;20052;-86
2022/05/26 13:37:32;;;;;;;2.15;0.90;;;;;;;;;;5045363;28;20060;-86
2022/05/26 13:40:04;;;;;;;6.68;1.10;;;;;;;;;;5050802;28;20086;-86
2022/05/26 13:42:41;;;;;;;2.35;1.05;;;;;;;;;;5060219;23;20658;-87
2022/05/26 13:45:54;;;;;;;3.20;1.10;;;;;;;;;;5013614;28;20052;-87
2022/05/26 13:48:33;;;;;;;;;;;;;;;;;;;;;
2022/05/26 13:54:48;;;;;;;1.02;0.60;;;;;;;;;;4946752;28;20039;-86
2022/05/26 13:57:26;;;;;;;4.35;1.10;;;;;;;;;;4913607;29;20040;-87
2022/05/26 14:00:00;;;;;;;3.30;1.30;;;;;;;;;;4984810;28;20037;-87
2022/05/26 14:05:52;;;;;;;4.28;1.20;;;;;;;;;;5011991;28;20042;-87
2022/05/26 14:08:40;;;;;;;3.65;0.90;;;;;;;;;;4989133;28;20035;-87
2022/05/26 14:14:37;;;;;;;4.85;0.90;;;;;;;;;;5012350;28;20036;-86
2022/05/26 14:20:21;;;;;;;4.05;1.60;;;;;;;;;;5032450;28;20036;-87
2022/05/26 14:23:13;;;;;;;;;;;;;;;;;;;;;
2022/05/26 14:26:05;;;;;;;;;;;;;;;;;;;;;
2022/05/26 14:29:00;;;;;;;4.43;0.90;;;;;;;;;;5026371;28;20036;-85
2022/05/26 14:37:44;;;;;;;2.90;0.65;;;;;;;;;;5005381;28;20075;-85
2022/05/26 14:40:24;;;;;;;5.13;1.90;;;;;;;;;;5015357;28;20065;-86
2022/05/26 14:42:50;;;;;;;3.13;0.88;;;;;;;;;;4976832;28;20130;-86
2022/05/26 14:45:45;;;;;;;5.43;1.10;;;;;;;;;;4988217;28;20077;-86
2022/05/26 14:48:25;;;;;;;4.97;1.05;;;;;;;;;;4987566;28;20522;-87
2022/05/26 14:51:31;;;;;;;6.15;1.38;;;;;;;;;;4973550;28;20038;-87
2022/05/26 14:57:14;;;;;;;4.45;1.33;;;;;;;;;;4981831;28;20126;-86
2022/05/26 15:00:15;;;;;;;5.60;1.30;;;;;;;;;;5007008;28;20038;-87
2022/05/26 15:03:05;;;;;;;1.98;0.88;;;;;;;;;;4993265;28;20037;-86
2022/05/26 15:08:42;;;;;;;3.90;0.93;;;;;;;;;;5029278;28;20057;-86
2022/05/26 15:11:43;;;;;;;;;;;;;;;;;;;;;
2022/05/26 15:14:38;;;;;;;;;;;;;;;;;;;;;
2022/05/26 15:17:12;;;;;;;3.13;0.90;;;;;;;;;;5022258;28;20041;-86
2022/05/26 15:20:25;;;;;;;4.63;1.00;;;;;;;;;;5012477;28;20022;-86
2022/05/26 15:23:08;;;;;;;4.88;1.10;;;;;;;;;;5012182;28;20113;-86
2022/05/26 15:26:07;;;;;;;3.72;0.85;;;;;;;;;;5030381;28;20033;-87
2022/05/26 15:28:28;;;;;;;2.35;1.08;;;;;;;;;;5016602;28;20327;-86
2022/05/26 15:30:57;;;;;;;2.78;0.90;;;;;;;;;;5015087;28;20030;-86
2022/05/26 15:33:50;;;;;;;3.22;1.10;;;;;;;;;;4998181;28;20037;-86
2022/05/26 15:36:24;;;;;;;2.15;0.80;;;;;;;;;;5024177;28;20037;-87
2022/05/26 15:38:58;;;;;;;3.08;0.90;;;;;;;;;;5018807;28;20033;-86
2022/05/26 15:47:12;;;;;;;4.20;0.82;;;;;;;;;;5002695;28;20542;-86
2022/05/26 15:50:09;;;;;;;5.75;1.08;;;;;;;;;;4991902;28;20027;-87
2022/05/26 15:53:07;;;;;;;;;;;;;;;;;;;;;
2022/05/26 15:55:42;;;;;;;3.33;1.33;;;;;;;;;;5005849;28;20025;-86
2022/05/26 15:58:30;;;;;;;3.28;0.90;;;;;;;;;;5014623;28;20599;-87
2022/05/26 16:01:01;;;;;;;4.10;0.90;;;;;;;;;;4997293;28;20030;-86
2022/05/26 16:03:31;;;;;;;4.13;0.90;;;;;;;;;;5014980;28;20069;-86
2022/05/26 16:06:09;;;;;;;4.65;1.17;;;;;;;;;;5015237;28;20030;-86
2022/05/26 16:09:13;;;;;;;4.13;1.17;;;;;;;;;;5008187;28;20029;-87
2022/05/26 16:12:06;;;;;;;4.95;1.05;;;;;;;;;;5019199;28;20439;-88
2022/05/26 16:14:39;;;;;;;4.22;1.20;;;;;;;;;;4988301;28;20116;-86
2022/05/26 16:20:57;;;;;;;3.92;1.45;;;;;;;;;;4952970;28;20035;-87
2022/05/26 16:23:44;;;;;;;3.20;1.10;;;;;;;;;;4965409;28;20038;-91
2022/05/26 16:29:23;;;;;;;;;;;;;;;;;;;;;
2022/05/26 16:32:04;;;;;;;8.50;1.15;;;;;;;;;;5407131;23;20478;-90
2022/05/26 16:34:39;;;;;;;4.75;1.80;;;;;;;;;;4992030;28;20164;-90
2022/05/26 16:37:13;;;;;;;5.57;1.52;;;;;;;;;;4991846;28;20530;-88
2022/05/26 16:39:46;;;;;;;3.47;0.77;;;;;;;;;;4994824;28;20456;-86
2022/05/26 16:42:28;;;;;;;3.95;1.10;;;;;;;;;;5008369;28;20056;-89
2022/05/26 16:45:09;;;;;;;4.38;0.80;;;;;;;;;;5011882;28;20042;-89
2022/05/26 16:47:38;;;;;;;4.33;1.10;;;;;;;;;;5015222;28;20022;-89
2022/05/26 16:50:26;;;;;;;3.60;0.93;;;;;;;;;;5015917;28;20139;-90
2022/05/26 16:52:55;;;;;;;3.85;0.98;;;;;;;;;;5014398;28;20030;-89
2022/05/26 16:58:36;;;;;;;2.97;0.80;;;;;;;;;;5005510;28;20050;-89
2022/05/26 17:01:08;;;;;;;1.98;0.80;;;;;;;;;;5011348;28;20042;-90
2022/05/26 17:03:43;;;;;;;4.25;1.20;;;;;;;;;;4995951;28;20026;-90
2022/05/26 17:06:28;;;;;;;2.13;1.15;;;;;;;;;;4994764;28;20027;-90
2022/05/26 17:09:20;;;;;;;2.10;0.90;;;;;;;;;;4994640;28;20089;-88
2022/05/26 17:11:56;;;;;;;4.45;1.13;;;;;;;;;;5007209;28;20018;-86
2022/05/26 17:23:08;;;;;;;4.95;0.80;;;;;;;;;;5012966;28;20056;-88
2022/05/26 17:25:53;;;;;;;3.45;0.82;;;;;;;;;;5011016;28;20088;-86
2022/05/26 17:28:19;;;;;;;2.63;0.80;;;;;;;;;;5011796;28;20022;-87
2022/05/26 17:30:48;;;;;;;3.15;0.80;;;;;;;;;;5013002;28;20026;-87
2022/05/26 17:33:23;;;;;;;3.72;1.00;;;;;;;;;;5012643;28;20492;-88
2022/05/26 17:35:53;;;;;;;1.67;0.75;;;;;;;;;;5008625;28;20038;-88
2022/05/26 17:38:22;;;;;;;2.40;1.00;;;;;;;;;;4994999;28;20160;-86
2022/05/26 17:41:00;;;;;;;4.10;1.00;;;;;;;;;;5008547;28;20052;-86
2022/05/26 17:43:35;;;;;;;1.90;1.02;;;;;;;;;;5013339;28;20400;-85
2022/05/26 17:49:07;;;;;;;;;;;;;;;;;;;;;
2022/05/26 17:51:52;;;;;;;4.22;1.13;;;;;;;;;;4993664;28;20480;-86
2022/05/26 17:54:18;;;;;;;4.18;0.95;;;;;;;;;;4992032;28;20457;-87
2022/05/26 17:56:45;;;;;;;4.00;1.00;;;;;;;;;;5010857;28;20452;-86